createdAt,value
2024-03-02T00:01:54.761Z,6.78
2024-03-02T00:04:28.405Z,6.71
2024-03-02T00:07:02.151Z,6.72
2024-03-02T00:09:37.851Z,6.72
2024-03-02T00:12:14.973Z,6.65
2024-03-02T00:14:48.108Z,6.68
2024-03-02T00:17:27.731Z,6.65
2024-03-02T00:20:00.793Z,6.64
2024-03-02T00:22:33.606Z,6.68
2024-03-02T00:25:09.944Z,6.64
2024-03-02T00:27:43.162Z,6.66
2024-03-02T00:30:47.202Z,6.69
2024-03-02T00:33:22.010Z,6.69
2024-03-02T00:35:55.132Z,6.65
2024-03-02T00:38:29.308Z,6.65
2024-03-02T00:41:09.144Z,6.61
2024-03-02T00:43:47.300Z,6.63
2024-03-02T00:46:21.860Z,6.62
2024-03-02T00:48:57.683Z,6.60
2024-03-02T00:51:32.645Z,6.62
2024-03-02T00:54:08.557Z,6.54
2024-03-02T00:56:43.770Z,6.57
2024-03-02T00:59:17.091Z,6.56
2024-03-02T01:01:51.460Z,6.58
2024-03-02T01:04:24.597Z,6.54
2024-03-02T01:06:58.105Z,6.54
2024-03-02T01:09:31.227Z,6.63
2024-03-02T01:12:06.083Z,6.83
2024-03-02T01:14:39.042Z,7.06
2024-03-02T01:17:12.049Z,6.99
2024-03-02T01:19:45.148Z,6.98
2024-03-02T01:22:21.195Z,6.96
2024-03-02T01:24:54.168Z,6.88
2024-03-02T01:27:29.300Z,6.73
2024-03-02T01:30:02.607Z,6.78
2024-03-02T01:32:35.932Z,6.71
2024-03-02T01:35:10.076Z,6.63
2024-03-02T01:37:43.134Z,6.61
2024-03-02T01:40:16.538Z,6.63
2024-03-02T01:42:51.134Z,6.10
2024-03-02T01:45:24.563Z,6.00
2024-03-02T01:47:57.791Z,5.93
2024-03-02T01:50:33.606Z,5.99
2024-03-02T01:53:07.070Z,6.05
2024-03-02T01:55:41.724Z,6.00
2024-03-02T01:58:18.575Z,5.93
2024-03-02T02:00:51.846Z,5.83
2024-03-02T02:03:24.995Z,5.64
2024-03-02T02:05:58.620Z,5.82
2024-03-02T02:08:31.901Z,5.58
2024-03-02T02:11:05.130Z,5.59
2024-03-02T02:13:39.481Z,5.61
2024-03-02T02:16:12.484Z,5.61
2024-03-02T02:18:45.785Z,5.67
2024-03-02T02:21:18.948Z,5.59
2024-03-02T02:23:53.756Z,5.66
2024-03-02T02:26:27.040Z,5.67
2024-03-02T02:29:00.141Z,5.82
2024-03-02T02:31:39.976Z,5.70
2024-03-02T02:34:13.616Z,5.71
2024-03-02T02:36:46.811Z,5.71
2024-03-02T02:39:27.757Z,5.75
2024-03-02T02:42:02.277Z,5.73
2024-03-02T02:44:35.589Z,5.84
2024-03-02T02:47:08.580Z,5.86
2024-03-02T02:49:41.780Z,5.96
2024-03-02T02:52:14.870Z,6.00
2024-03-02T02:54:49.737Z,5.98
2024-03-02T02:57:22.855Z,6.00
2024-03-02T02:59:55.911Z,6.03
2024-03-02T03:02:30.620Z,6.09
2024-03-02T03:05:03.725Z,6.05
2024-03-02T03:07:37.734Z,6.06
2024-03-02T03:10:12.456Z,6.05
2024-03-02T03:12:45.902Z,6.19
2024-03-02T03:15:19.379Z,6.31
2024-03-02T03:17:55.907Z,6.25
2024-03-02T03:20:29.016Z,6.21
2024-03-02T03:23:02.141Z,6.21
2024-03-02T03:25:36.336Z,6.09
2024-03-02T03:28:11.213Z,6.11
2024-03-02T03:30:44.408Z,6.12
2024-03-02T03:33:17.819Z,6.11
2024-03-02T03:35:51.063Z,6.07
2024-03-02T03:38:24.344Z,6.10
2024-03-02T03:40:59.254Z,6.11
2024-03-02T03:43:32.463Z,6.08
2024-03-02T03:46:05.820Z,6.07
2024-03-02T03:48:39.006Z,5.95
2024-03-02T03:51:12.138Z,5.98
2024-03-02T03:53:46.252Z,5.99
2024-03-02T03:56:21.974Z,6.07
2024-03-02T03:58:55.480Z,6.02
2024-03-02T04:01:29.374Z,5.98
2024-03-02T04:04:03.220Z,6.06
2024-03-02T04:06:36.876Z,6.09
2024-03-02T04:09:10.436Z,6.05
2024-03-02T04:11:45.880Z,6.03
2024-03-02T04:14:19.338Z,6.05
2024-03-02T04:16:52.864Z,6.01
2024-03-02T04:19:25.968Z,5.99
2024-03-02T04:22:01.635Z,5.98
2024-03-02T04:24:38.872Z,5.90
2024-03-02T04:27:13.638Z,5.84
2024-03-02T04:29:47.438Z,5.90
2024-03-02T04:32:21.897Z,5.92
2024-03-02T04:34:54.787Z,5.85
2024-03-02T04:37:27.696Z,5.78
2024-03-02T04:40:00.712Z,5.75
2024-03-02T04:42:35.253Z,5.72
2024-03-02T04:45:09.371Z,5.73
2024-03-02T04:47:42.848Z,5.67
2024-03-02T04:50:16.023Z,5.64
2024-03-02T04:52:48.932Z,5.68
2024-03-02T04:55:46.510Z,5.62
2024-03-02T04:58:20.744Z,5.59
2024-03-02T05:00:53.776Z,5.60
2024-03-02T05:03:26.710Z,5.46
2024-03-02T05:05:59.652Z,5.51
2024-03-02T05:08:32.563Z,5.38
2024-03-02T05:11:19.816Z,5.35
2024-03-02T05:13:54.240Z,5.26
2024-03-02T05:16:27.612Z,5.14
2024-03-02T05:19:00.723Z,4.98
2024-03-02T05:21:33.649Z,4.92
2024-03-02T05:24:06.982Z,4.79
2024-03-02T05:26:39.888Z,4.79
2024-03-02T05:29:14.512Z,4.81
2024-03-02T05:31:47.735Z,4.78
2024-03-02T05:34:20.877Z,4.72
2024-03-02T05:36:54.584Z,4.63
2024-03-02T05:39:27.735Z,4.61
2024-03-02T05:42:01.057Z,4.57
2024-03-02T05:44:35.530Z,4.51
2024-03-02T05:47:10.027Z,4.52
2024-03-02T05:49:44.215Z,4.55
2024-03-02T05:52:17.169Z,4.40
2024-03-02T05:54:51.548Z,4.37
2024-03-02T05:57:40.316Z,4.45
2024-03-02T06:00:18.443Z,4.41
2024-03-02T06:02:52.177Z,4.41
2024-03-02T06:05:26.022Z,4.40
2024-03-02T06:07:59.109Z,4.42
2024-03-02T06:10:32.301Z,4.38
2024-03-02T06:13:05.657Z,4.36
2024-03-02T06:15:39.873Z,4.41
2024-03-02T06:18:13.076Z,4.36
2024-03-02T06:20:46.462Z,4.50
2024-03-02T06:23:19.972Z,4.55
2024-03-02T06:25:52.965Z,4.59
2024-03-02T06:28:25.940Z,4.77
2024-03-02T06:31:03.189Z,4.84
2024-03-02T06:33:36.353Z,4.94
2024-03-02T06:36:09.716Z,5.01
2024-03-02T06:38:43.849Z,5.16
2024-03-02T06:41:17.127Z,5.23
2024-03-02T06:43:51.327Z,5.25
2024-03-02T06:46:25.520Z,5.30
2024-03-02T06:48:58.496Z,5.36
2024-03-02T06:51:31.643Z,5.49
2024-03-02T06:54:11.070Z,5.53
2024-03-02T06:56:44.612Z,5.64
2024-03-02T06:59:17.585Z,5.72
2024-03-02T07:01:52.357Z,5.75
2024-03-02T07:04:25.561Z,5.85
2024-03-02T07:06:59.065Z,5.83
2024-03-02T07:09:32.175Z,5.90
2024-03-02T07:12:05.925Z,6.00
2024-03-02T07:14:57.020Z,6.00
2024-03-02T07:17:31.735Z,6.10
2024-03-02T07:20:05.929Z,6.09
2024-03-02T07:22:42.398Z,6.21
2024-03-02T07:27:54.012Z,6.45
2024-03-02T07:30:27.567Z,6.48
2024-03-02T07:33:02.056Z,6.54
2024-03-02T07:35:35.464Z,6.68
2024-03-02T07:38:09.188Z,6.75
2024-03-02T07:40:42.341Z,6.88
2024-03-02T07:43:15.333Z,7.06
2024-03-02T07:45:48.629Z,7.08
2024-03-02T07:48:23.381Z,7.16
2024-03-02T07:50:56.293Z,7.17
2024-03-02T07:53:29.703Z,7.24
2024-03-02T07:56:04.088Z,7.30
2024-03-02T07:58:38.133Z,7.37
2024-03-02T08:01:11.045Z,7.30
2024-03-02T08:03:49.480Z,7.42
2024-03-02T08:06:23.014Z,7.47
2024-03-02T08:08:56.543Z,7.61
2024-03-02T08:11:30.259Z,7.63
2024-03-02T08:14:04.063Z,7.59
2024-03-02T08:16:37.325Z,7.75
2024-03-02T08:19:12.590Z,7.79
2024-03-02T08:21:45.762Z,7.77
2024-03-02T08:24:18.663Z,7.81
2024-03-02T08:26:51.713Z,7.93
2024-03-02T08:29:24.861Z,8.01
2024-03-02T08:31:57.983Z,8.23
2024-03-02T08:34:33.367Z,8.10
2024-03-02T08:37:07.132Z,8.20
2024-03-02T08:39:40.236Z,8.55
2024-03-02T08:42:13.664Z,8.57
2024-03-02T08:44:46.466Z,8.40
2024-03-02T08:47:20.045Z,8.75
2024-03-02T08:49:54.465Z,8.80
2024-03-02T08:52:27.807Z,8.78
2024-03-02T08:55:01.417Z,8.99
2024-03-02T08:57:35.413Z,8.97
2024-03-02T09:00:10.086Z,9.11
2024-03-02T09:02:43.441Z,9.25
2024-03-02T09:05:17.967Z,9.22
2024-03-02T09:07:51.289Z,9.49
2024-03-02T09:10:26.973Z,9.75
2024-03-02T09:13:02.129Z,9.42
2024-03-02T09:15:39.007Z,9.54
2024-03-02T09:18:13.503Z,9.59
2024-03-02T09:20:48.486Z,9.66
2024-03-02T09:23:23.340Z,9.87
2024-03-02T09:25:56.345Z,9.83
2024-03-02T09:28:29.249Z,9.91
2024-03-02T09:31:03.284Z,9.92
2024-03-02T09:33:36.702Z,10.21
2024-03-02T09:36:21.011Z,10.48
2024-03-02T09:38:54.450Z,10.55
2024-03-02T09:41:27.714Z,10.88
2024-03-02T09:44:00.929Z,10.90
2024-03-02T09:46:33.885Z,11.31
2024-03-02T09:49:06.754Z,11.28
2024-03-02T09:51:42.836Z,11.41
2024-03-02T09:54:22.024Z,11.49
2024-03-02T09:56:56.050Z,11.34
2024-03-02T09:59:29.267Z,11.64
2024-03-02T10:02:03.556Z,11.21
2024-03-02T10:04:37.916Z,11.35
2024-03-02T10:07:16.998Z,11.58
2024-03-02T10:09:51.274Z,11.74
2024-03-02T10:12:24.580Z,12.01
2024-03-02T10:15:08.979Z,12.05
2024-03-02T10:17:42.138Z,12.01
2024-03-02T10:20:25.486Z,11.69
2024-03-02T10:23:12.776Z,12.30
2024-03-02T10:25:51.896Z,12.49
2024-03-02T10:28:31.074Z,12.95
2024-03-02T10:31:04.344Z,12.51
2024-03-02T10:33:38.256Z,12.91
2024-03-02T10:36:11.739Z,13.39
2024-03-02T10:38:48.539Z,13.15
2024-03-02T10:41:25.428Z,12.72
2024-03-02T10:44:00.713Z,12.94
2024-03-02T10:46:36.214Z,13.85
2024-03-02T10:49:10.139Z,13.90
2024-03-02T10:51:43.996Z,14.37
2024-03-02T10:54:19.752Z,15.09
2024-03-02T10:56:53.337Z,14.42
2024-03-02T10:59:30.456Z,14.46
2024-03-02T11:02:06.310Z,15.04
2024-03-02T11:04:42.944Z,15.19
2024-03-02T11:07:17.790Z,14.32
2024-03-02T11:10:00.026Z,14.39
2024-03-02T11:12:40.826Z,14.47
2024-03-02T11:15:20.137Z,15.04
2024-03-02T11:17:54.433Z,15.04
2024-03-02T11:20:30.213Z,14.91
2024-03-02T11:23:09.114Z,14.99
2024-03-02T11:25:43.434Z,16.15
2024-03-02T11:28:16.440Z,15.75
2024-03-02T11:30:53.943Z,15.31
2024-03-02T11:33:32.031Z,15.21
2024-03-02T11:36:09.286Z,15.31
2024-03-02T11:38:46.667Z,14.95
2024-03-02T11:41:21.619Z,15.09
2024-03-02T11:43:54.730Z,15.67
2024-03-02T11:46:28.288Z,16.03
2024-03-02T11:49:02.085Z,16.31
2024-03-02T11:51:36.491Z,16.03
2024-03-02T11:54:10.993Z,15.63
2024-03-02T11:56:45.903Z,16.06
2024-03-02T11:59:19.745Z,16.11
2024-03-02T12:01:53.004Z,16.35
2024-03-02T12:04:27.004Z,16.58
2024-03-02T12:07:02.224Z,16.70
2024-03-02T12:09:35.471Z,16.76
2024-03-02T12:12:12.635Z,16.39
2024-03-02T12:14:54.265Z,16.43
2024-03-02T12:17:27.307Z,17.03
2024-03-02T12:20:00.874Z,16.93
2024-03-02T12:22:34.455Z,17.04
2024-03-02T12:25:07.717Z,16.30
2024-03-02T12:27:42.958Z,16.86
2024-03-02T12:30:16.145Z,16.73
2024-03-02T12:32:50.012Z,16.59
2024-03-02T12:35:23.568Z,16.08
2024-03-02T12:37:57.355Z,16.68
2024-03-02T12:40:30.860Z,16.89
2024-03-02T12:43:05.872Z,17.12
2024-03-02T12:45:41.395Z,16.85
2024-03-02T12:48:18.233Z,16.91
2024-03-02T12:50:51.616Z,16.43
2024-03-02T12:53:26.331Z,16.77
2024-03-02T12:56:00.828Z,16.57
2024-03-02T12:58:41.745Z,16.60
2024-03-02T13:01:20.626Z,16.72
2024-03-02T13:03:56.328Z,16.85
2024-03-02T13:06:30.768Z,16.31
2024-03-02T13:09:05.260Z,16.55
2024-03-02T13:11:38.838Z,16.40
2024-03-02T13:14:14.228Z,17.04
2024-03-02T13:16:48.632Z,17.08
2024-03-02T13:19:21.741Z,16.73
2024-03-02T13:21:54.611Z,16.57
2024-03-02T13:24:29.575Z,16.53
2024-03-02T13:27:05.191Z,16.91
2024-03-02T13:29:40.111Z,16.47
2024-03-02T13:32:13.338Z,16.59
2024-03-02T13:34:46.355Z,16.74
2024-03-02T13:37:19.894Z,16.62
2024-03-02T13:39:52.950Z,16.78
2024-03-02T13:42:26.648Z,17.00
2024-03-02T13:45:01.439Z,16.82
2024-03-02T13:47:34.859Z,16.44
2024-03-02T13:50:08.609Z,16.50
2024-03-02T13:52:41.735Z,16.81
2024-03-02T13:55:15.214Z,17.16
2024-03-02T13:57:50.066Z,17.21
2024-03-02T14:00:24.686Z,17.03
2024-03-02T14:02:58.153Z,16.82
2024-03-02T14:05:31.241Z,16.67
2024-03-02T14:08:05.407Z,16.85
2024-03-02T14:10:38.678Z,16.57
2024-03-02T14:13:12.191Z,16.68
2024-03-02T14:15:47.564Z,16.43
2024-03-02T14:18:22.452Z,16.56
2024-03-02T14:20:55.940Z,16.93
2024-03-02T14:23:30.754Z,16.55
2024-03-02T14:26:04.802Z,17.01
2024-03-02T14:28:49.365Z,16.85
2024-03-02T14:31:26.338Z,16.39
2024-03-02T14:34:00.315Z,16.78
2024-03-02T14:36:34.502Z,16.60
2024-03-02T14:39:11.330Z,16.54
2024-03-02T14:41:45.606Z,16.87
2024-03-02T14:44:19.456Z,16.67
2024-03-02T14:46:54.091Z,16.18
2024-03-02T14:49:27.450Z,16.06
2024-03-02T14:52:01.007Z,15.75
2024-03-02T14:54:38.058Z,15.98
2024-03-02T14:57:16.250Z,15.66
2024-03-02T14:59:50.108Z,15.92
2024-03-02T15:02:24.843Z,15.85
2024-03-02T15:04:58.039Z,15.99
2024-03-02T15:07:31.354Z,15.98
2024-03-02T15:10:05.688Z,15.56
2024-03-02T15:12:39.913Z,15.90
2024-03-02T15:15:13.519Z,15.63
2024-03-02T15:17:48.108Z,15.90
2024-03-02T15:20:23.025Z,15.54
2024-03-02T15:22:56.232Z,15.23
2024-03-02T15:25:29.860Z,15.09
2024-03-02T15:28:03.254Z,15.28
2024-03-02T15:30:37.749Z,14.90
2024-03-02T15:33:13.336Z,14.80
2024-03-02T15:35:49.841Z,14.94
2024-03-02T15:38:33.571Z,14.80
2024-03-02T15:41:09.826Z,14.81
2024-03-02T15:43:44.115Z,14.73
2024-03-02T15:46:17.685Z,14.86
2024-03-02T15:49:05.606Z,14.60
2024-03-02T15:51:45.857Z,14.77
2024-03-02T15:54:19.870Z,14.72
2024-03-02T15:57:00.685Z,14.78
2024-03-02T15:59:34.209Z,14.82
2024-03-02T16:02:11.561Z,14.37
2024-03-02T16:04:46.642Z,14.69
2024-03-02T16:07:21.947Z,14.39
2024-03-02T16:09:55.608Z,14.22
2024-03-02T16:12:30.662Z,14.08
2024-03-02T16:15:06.554Z,14.17
2024-03-02T16:17:42.270Z,13.78
2024-03-02T16:20:16.871Z,13.56
2024-03-02T16:22:49.940Z,13.53
2024-03-02T16:25:25.982Z,13.41
2024-03-02T16:27:59.668Z,13.28
2024-03-02T16:30:32.811Z,13.46
2024-03-02T16:33:06.591Z,13.35
2024-03-02T16:35:40.989Z,13.11
2024-03-02T16:38:14.201Z,12.91
2024-03-02T16:40:49.160Z,12.66
2024-03-02T16:43:22.214Z,12.69
2024-03-02T16:45:55.401Z,12.75
2024-03-02T16:48:28.697Z,12.58
2024-03-02T16:51:04.756Z,12.45
2024-03-02T16:53:38.554Z,12.36
2024-03-02T16:56:11.875Z,12.26
2024-03-02T16:58:45.044Z,12.22
2024-03-02T17:01:19.572Z,12.04
2024-03-02T17:03:52.629Z,11.93
2024-03-02T17:06:27.241Z,11.77
2024-03-02T17:09:00.561Z,11.82
2024-03-02T17:11:34.961Z,11.59
2024-03-02T17:14:07.896Z,11.55
2024-03-02T17:16:41.140Z,11.28
2024-03-02T17:19:17.643Z,11.40
2024-03-02T17:21:57.859Z,11.13
2024-03-02T17:27:33.380Z,11.07
2024-03-02T17:30:17.282Z,11.17
2024-03-02T17:33:08.910Z,11.07
2024-03-02T17:35:46.784Z,10.88
2024-03-02T17:38:21.626Z,10.84
2024-03-02T17:40:55.376Z,10.76
2024-03-02T17:43:30.345Z,10.82
2024-03-02T17:46:13.266Z,10.71
2024-03-02T17:48:56.759Z,10.72
2024-03-02T17:56:35.335Z,10.69
2024-03-02T17:59:22.944Z,10.27
2024-03-02T18:02:01.352Z,10.20
2024-03-02T18:04:42.936Z,10.23
2024-03-02T18:07:44.485Z,10.11
2024-03-02T18:10:24.626Z,10.00
2024-03-02T18:13:06.721Z,9.94
2024-03-02T18:15:51.720Z,9.92
2024-03-02T18:18:28.939Z,9.86
2024-03-02T18:21:10.947Z,9.84
2024-03-02T18:23:47.293Z,9.78
2024-03-02T18:26:31.447Z,9.64
2024-03-02T18:32:03.475Z,9.41
2024-03-02T18:34:47.330Z,9.39
2024-03-02T18:37:35.743Z,9.33
2024-03-02T18:40:15.854Z,9.37
2024-03-02T18:43:21.222Z,9.32
2024-03-02T18:46:01.147Z,9.24
2024-03-02T18:48:37.413Z,9.06
2024-03-02T18:51:11.431Z,9.24
2024-03-02T18:53:45.641Z,9.13
2024-03-02T18:56:28.064Z,9.27
2024-03-02T18:59:19.776Z,9.12
2024-03-02T19:01:55.882Z,8.76
2024-03-02T19:04:37.708Z,8.99
2024-03-02T19:07:17.184Z,8.90
2024-03-02T19:09:50.885Z,8.58
2024-03-02T19:12:28.993Z,8.68
2024-03-02T19:15:08.566Z,8.62
2024-03-02T19:17:44.290Z,8.68
2024-03-02T19:20:19.117Z,8.79
2024-03-02T19:22:54.136Z,8.95
2024-03-02T19:25:33.746Z,8.83
2024-03-02T19:28:07.960Z,8.89
2024-03-02T19:30:46.659Z,8.71
2024-03-02T19:33:25.562Z,8.59
2024-03-02T19:36:00.985Z,8.57
2024-03-02T19:38:41.004Z,8.61
2024-03-02T19:41:14.697Z,8.60
2024-03-02T19:43:48.274Z,8.52
2024-03-02T19:46:29.430Z,8.44
2024-03-02T19:49:10.508Z,8.24
2024-03-02T19:51:47.212Z,8.30
2024-03-02T19:54:21.460Z,8.10
2024-03-02T19:57:03.420Z,8.12
2024-03-02T19:59:41.142Z,8.31
2024-03-02T20:02:19.795Z,8.27
2024-03-02T20:04:55.038Z,8.16
2024-03-02T20:07:33.237Z,8.21
2024-03-02T20:10:08.227Z,8.30
2024-03-02T20:12:52.023Z,8.16
2024-03-02T20:15:25.767Z,8.18
2024-03-02T20:18:02.592Z,8.36
2024-03-02T20:21:01.577Z,8.24
2024-03-02T20:23:53.513Z,8.30
2024-03-02T20:26:29.725Z,8.32
2024-03-02T20:29:04.774Z,8.26
2024-03-02T20:31:39.792Z,8.26
2024-03-02T20:34:13.820Z,8.17
2024-03-02T20:36:51.294Z,8.45
2024-03-02T20:39:30.409Z,8.48
2024-03-02T20:42:04.460Z,8.17
2024-03-02T20:44:45.386Z,8.09
2024-03-02T20:47:25.882Z,8.19
2024-03-02T20:50:10.518Z,8.00
2024-03-02T20:52:46.397Z,7.96
2024-03-02T20:55:22.785Z,8.01
2024-03-02T21:01:20.682Z,7.74
2024-03-02T21:03:53.949Z,7.95
2024-03-02T21:06:28.661Z,7.83
2024-03-02T21:09:04.505Z,7.79
2024-03-02T21:11:39.260Z,7.93
2024-03-02T21:14:12.616Z,7.93
2024-03-02T21:16:46.194Z,7.90
2024-03-02T21:19:19.467Z,7.88
2024-03-02T21:21:52.837Z,7.78
2024-03-02T21:24:27.616Z,7.68
2024-03-02T21:27:01.239Z,7.78
2024-03-02T21:29:42.594Z,7.76
2024-03-02T21:32:19.486Z,7.60
2024-03-02T21:35:05.437Z,7.50
2024-03-02T21:37:44.983Z,7.73
2024-03-02T21:40:20.636Z,7.84
2024-03-02T21:42:53.919Z,7.64
2024-03-02T21:45:27.606Z,7.63
2024-03-02T21:48:01.331Z,7.52
2024-03-02T21:50:35.566Z,7.52
2024-03-02T21:53:09.255Z,7.61
2024-03-02T21:55:44.354Z,7.57
2024-03-02T21:58:18.219Z,7.59
2024-03-02T22:00:54.594Z,7.50
2024-03-02T22:03:28.312Z,7.50
2024-03-02T22:06:02.417Z,7.50
2024-03-02T22:08:42.486Z,7.78
2024-03-02T22:11:30.826Z,7.57
2024-03-02T22:14:12.622Z,7.61
2024-03-02T22:16:46.329Z,7.56
2024-03-02T22:19:20.204Z,7.50
2024-03-02T22:21:53.735Z,7.64
2024-03-02T22:24:27.543Z,7.73
2024-03-02T22:27:02.559Z,7.81
2024-03-02T22:29:36.359Z,7.64
2024-03-02T22:32:18.455Z,7.67
2024-03-02T22:34:51.801Z,7.54
2024-03-02T22:37:25.177Z,7.61
2024-03-02T22:40:05.695Z,7.64
2024-03-02T22:42:48.427Z,7.62
2024-03-02T22:45:22.575Z,7.68
2024-03-02T22:48:04.075Z,7.65
2024-03-02T22:50:46.425Z,7.61
2024-03-02T22:53:28.300Z,7.67
2024-03-02T23:13:01.408Z,7.62
2024-03-02T23:13:15.530Z,7.30
2024-03-02T23:15:54.676Z,7.39
2024-03-02T23:18:35.624Z,7.35
2024-03-02T23:21:09.458Z,7.23
2024-03-02T23:23:45.982Z,7.17
2024-03-02T23:26:22.257Z,6.95
2024-03-02T23:28:55.652Z,6.88
2024-03-02T23:31:31.379Z,6.76
2024-03-02T23:34:09.185Z,6.66
2024-03-02T23:36:46.713Z,6.80
2024-03-02T23:39:47.171Z,6.71
2024-03-02T23:42:20.348Z,6.71
2024-03-02T23:44:54.260Z,6.81
2024-03-02T23:47:31.574Z,6.65
2024-03-02T23:50:17.466Z,6.63
2024-03-02T23:52:51.232Z,6.63
2024-03-02T23:55:46.358Z,6.65
2024-03-02T23:58:25.260Z,6.48
